Norfolk, Virginia
Traffic Map
Current Weather Conditions
Norfolk, Virginia
Clear
Clear
65°
Feels Like: 65°
Wind Chill: 65° Ceiling: Unl
Heat Index: 65° Visibility: 10mi
Dew Point: 57° Wind: 15mph
Humidity: 75% Direction: 150° (SSE)
Pressure: 29.85in Gusts: 0mph
Raw Report DataKORF 250051Z 15013KT 10SM CLR 18/14 A2985 RMK AO2 SLP109 T01830139
Traffic Incident Summary
Active as of:
Severity:
Category:
InformationThere was an issue retrieving the traffic information for this location. Please try a different location or try again shortly.
Advertisements
Track Severe Weather on mobile